Time;durP1;ratioP1;P1;durP2;ratioP2;P2;SDS_P1;SDS_P2;PMS_P1;PMS_P2;Temp;Humidity;BMP_temperature;BMP_pressure;BME280_temperature;BME280_humidity;BME280_pressure;Samples;Min_cycle;Max_cycle;Signal;HPM_P1;HPM_P2
2022/06/28 00:01:10;;;;;;;0.00;0.00;;;23.80;46.50;;;;;;6146348;28;20054;-47
2022/06/28 00:04:12;;;;;;;0.10;0.10;;;23.80;46.60;;;;;;6141532;28;20050;-47
2022/06/28 00:07:14;;;;;;;0.10;0.10;;;23.80;46.60;;;;;;6141193;28;20160;-46
2022/06/28 00:10:16;;;;;;;0.20;0.10;;;23.70;46.70;;;;;;6143069;28;20050;-44
2022/06/28 00:13:18;;;;;;;0.10;0.10;;;23.80;46.70;;;;;;6142108;28;20120;-46
2022/06/28 00:16:19;;;;;;;0.10;0.10;;;23.80;46.80;;;;;;6143015;28;20050;-49
2022/06/28 00:19:21;;;;;;;0.20;0.20;;;23.80;46.80;;;;;;6141744;28;20051;-48
2022/06/28 00:22:24;;;;;;;0.95;0.15;;;23.70;46.80;;;;;;6129416;28;20054;-48
2022/06/28 00:25:26;;;;;;;0.17;0.10;;;23.70;46.80;;;;;;6144619;28;20195;-46
2022/06/28 00:28:28;;;;;;;0.30;0.10;;;23.70;46.80;;;;;;6144040;28;20047;-46
2022/06/28 00:31:30;;;;;;;0.40;0.10;;;23.70;46.80;;;;;;6139555;28;21069;-50
2022/06/28 00:34:31;;;;;;;0.10;0.10;;;23.70;46.80;;;;;;6144219;28;20054;-46
2022/06/28 00:37:34;;;;;;;0.35;0.20;;;23.70;46.80;;;;;;6140729;28;20129;-46
2022/06/28 00:40:45;;;;;;;0.38;0.13;;;23.70;46.70;;;;;;6145578;28;20121;-48
2022/06/28 00:43:46;;;;;;;0.65;0.17;;;23.70;46.70;;;;;;6147984;28;20050;-46
2022/06/28 00:46:49;;;;;;;0.60;0.10;;;23.80;46.70;;;;;;6151450;28;20910;-49
2022/06/28 00:49:51;;;;;;;0.75;0.40;;;23.70;46.60;;;;;;6144066;28;21081;-44
2022/06/28 00:53:03;;;;;;;0.28;0.10;;;23.70;46.60;;;;;;6134521;28;20088;-50
2022/06/28 00:56:05;;;;;;;0.30;0.20;;;23.70;46.60;;;;;;6124734;28;20990;-44
2022/06/28 00:59:07;;;;;;;0.47;0.20;;;23.80;46.60;;;;;;6137491;28;20081;-46
2022/06/28 01:02:09;;;;;;;0.30;0.10;;;23.50;46.40;;;;;;6132733;28;20046;-50
2022/06/28 01:05:11;;;;;;;0.22;0.20;;;23.60;46.40;;;;;;6124822;28;20326;-50
2022/06/28 01:08:13;;;;;;;0.40;0.20;;;23.70;46.50;;;;;;6135468;28;20053;-47
2022/06/28 01:11:20;;;;;;;0.40;0.10;;;23.90;46.60;;;;;;6105393;28;20199;-48
2022/06/28 01:14:30;;;;;;;0.30;0.10;;;23.70;46.40;;;;;;6138338;28;20358;-46
2022/06/28 01:17:38;;;;;;;0.20;0.13;;;23.70;46.40;;;;;;6134977;28;20775;-49
2022/06/28 01:20:59;;;;;;;0.40;0.20;;;23.60;46.30;;;;;;6136584;28;20677;-50
2022/06/28 01:24:06;;;;;;;0.13;0.10;;;23.70;46.30;;;;;;6133715;28;20066;-50
2022/06/28 01:27:22;;;;;;;0.47;0.20;;;23.70;46.30;;;;;;6136508;28;20349;-44
2022/06/28 01:30:26;;;;;;;0.40;0.20;;;23.70;46.30;;;;;;6132775;28;20780;-49
2022/06/28 01:33:38;;;;;;;0.10;0.10;;;23.60;46.20;;;;;;6134584;28;20052;-46
2022/06/28 01:36:44;;;;;;;0.20;0.10;;;23.60;46.10;;;;;;6138220;28;20421;-50
2022/06/28 01:39:47;;;;;;;0.40;0.20;;;23.70;46.20;;;;;;6136179;28;20049;-47
2022/06/28 01:42:50;;;;;;;0.20;0.20;;;23.70;46.20;;;;;;6132272;28;20038;-49
2022/06/28 01:45:53;;;;;;;0.47;0.10;;;23.60;46.10;;;;;;6138583;28;20998;-48
2022/06/28 01:48:54;;;;;;;1.17;0.22;;;23.60;46.10;;;;;;6137943;28;20041;-48
2022/06/28 01:51:57;;;;;;;0.30;0.20;;;23.70;46.10;;;;;;6137152;28;20058;-45
2022/06/28 01:54:59;;;;;;;0.38;0.20;;;23.60;46.10;;;;;;6135750;28;20574;-47
2022/06/28 01:58:01;;;;;;;0.28;0.20;;;23.60;46.00;;;;;;6136610;28;20066;-49
2022/06/28 02:01:06;;;;;;;0.55;0.20;;;23.70;46.10;;;;;;6123542;28;20039;-46
2022/06/28 02:04:22;;;;;;;0.45;0.20;;;23.60;46.10;;;;;;6122155;28;20058;-49
2022/06/28 02:07:29;;;;;;;0.35;0.20;;;23.60;46.10;;;;;;6123389;28;20455;-52
2022/06/28 02:10:32;;;;;;;0.20;0.20;;;23.60;46.00;;;;;;6135845;28;20578;-49
2022/06/28 02:13:35;;;;;;;0.32;0.20;;;23.60;46.10;;;;;;6132837;28;20827;-48
2022/06/28 02:16:37;;;;;;;0.82;0.30;;;23.60;46.00;;;;;;6133853;28;20826;-47
2022/06/28 02:19:39;;;;;;;0.80;0.30;;;23.60;46.00;;;;;;6129844;28;20296;-47
2022/06/28 02:22:42;;;;;;;0.17;0.17;;;23.60;46.00;;;;;;6132392;28;20076;-45
2022/06/28 02:25:44;;;;;;;0.43;0.10;;;23.60;46.00;;;;;;6128918;28;20046;-48
2022/06/28 02:28:47;;;;;;;0.10;0.10;;;23.60;46.30;;;;;;6134320;28;20124;-47
2022/06/28 02:31:51;;;;;;;0.35;0.20;;;23.50;45.90;;;;;;6132746;28;20042;-48
2022/06/28 02:41:23;;;;;;;0.35;0.20;;;23.60;46.00;;;;;;6147591;28;20537;-47
2022/06/28 02:44:24;;;;;;;0.63;0.30;;;23.60;46.20;;;;;;6149005;28;20082;-49
2022/06/28 02:47:26;;;;;;;0.20;0.10;;;23.50;45.90;;;;;;6137795;28;20055;-50
2022/06/28 02:50:28;;;;;;;0.10;0.10;;;23.50;45.90;;;;;;6132291;28;20156;-51
2022/06/28 02:53:29;;;;;;;0.22;0.10;;;23.60;45.90;;;;;;6121916;28;20046;-50
2022/06/28 02:56:33;;;;;;;0.30;0.20;;;23.50;45.90;;;;;;6133211;28;20565;-46
2022/06/28 02:59:35;;;;;;;0.10;0.10;;;23.50;45.90;;;;;;6132106;28;20762;-46
2022/06/28 03:02:39;;;;;;;0.40;0.10;;;23.70;46.00;;;;;;6131230;28;21125;-52
2022/06/28 03:05:43;;;;;;;0.25;0.10;;;23.40;45.80;;;;;;6119274;28;20065;-45
2022/06/28 03:08:44;;;;;;;0.10;0.10;;;23.30;45.70;;;;;;6131029;28;20157;-50
2022/06/28 03:11:47;;;;;;;0.22;0.13;;;23.50;45.90;;;;;;6133619;28;20050;-50
2022/06/28 03:14:49;;;;;;;0.32;0.20;;;23.50;45.90;;;;;;6131251;28;20042;-45
2022/06/28 03:17:50;;;;;;;1.02;0.10;;;23.50;45.90;;;;;;6130505;28;20053;-46
2022/06/28 03:20:52;;;;;;;0.98;0.10;;;23.50;45.90;;;;;;6131976;28;20589;-47
2022/06/28 03:23:54;;;;;;;0.20;0.10;;;23.40;45.80;;;;;;6119675;28;20049;-48
2022/06/28 03:26:57;;;;;;;0.32;0.15;;;23.60;46.00;;;;;;6137354;28;20284;-50
2022/06/28 03:29:59;;;;;;;0.20;0.20;;;23.50;45.90;;;;;;6137183;28;20066;-49
2022/06/28 03:33:03;;;;;;;0.28;0.10;;;23.40;45.90;;;;;;6131321;28;20051;-51
2022/06/28 03:36:09;;;;;;;0.75;0.30;;;23.60;46.00;;;;;;6136933;28;20599;-51
2022/06/28 03:39:15;;;;;;;2.13;0.17;;;23.50;46.00;;;;;;6139598;28;20127;-47
2022/06/28 03:42:24;;;;;;;0.65;0.13;;;22.90;45.70;;;;;;6136613;28;20429;-51
2022/06/28 03:45:28;;;;;;;0.63;0.22;;;23.30;46.20;;;;;;6141484;28;20081;-50
2022/06/28 03:48:49;;;;;;;;;;;23.60;46.00;;;;;;6150624;28;20081;-47
2022/06/28 03:52:01;;;;;;;0.35;0.10;;;23.30;45.90;;;;;;6145895;28;19930;-50
2022/06/28 03:55:14;;;;;;;0.22;0.17;;;23.40;45.90;;;;;;6146307;28;20572;-46
2022/06/28 03:58:21;;;;;;;0.65;0.20;;;23.40;46.00;;;;;;6137467;28;20267;-50
2022/06/28 04:01:23;;;;;;;1.55;0.20;;;23.40;45.90;;;;;;6132390;28;20050;-48
2022/06/28 04:04:24;;;;;;;0.65;0.20;;;23.40;45.90;;;;;;6135774;28;20080;-50
2022/06/28 04:07:26;;;;;;;0.20;0.10;;;23.40;45.90;;;;;;6145935;28;20035;-48
2022/06/28 04:10:28;;;;;;;0.38;0.20;;;23.30;45.80;;;;;;6148381;28;20459;-50
2022/06/28 04:13:38;;;;;;;0.35;0.20;;;23.30;45.80;;;;;;6134752;28;20124;-51
2022/06/28 04:16:41;;;;;;;0.73;0.20;;;23.40;45.90;;;;;;6121579;28;20461;-49
2022/06/28 04:19:44;;;;;;;0.20;0.15;;;23.50;45.90;;;;;;6138347;28;20384;-49
2022/06/28 04:22:47;;;;;;;1.00;0.10;;;23.40;45.90;;;;;;6136197;28;20074;-46
2022/06/28 04:25:48;;;;;;;0.52;0.15;;;23.40;45.80;;;;;;6137077;28;20486;-49
2022/06/28 04:29:07;;;;;;;0.10;0.10;;;23.40;45.90;;;;;;6136907;28;20695;-49
2022/06/28 04:32:09;;;;;;;0.40;0.20;;;23.30;45.80;;;;;;6135150;28;20047;-50
2022/06/28 04:35:13;;;;;;;0.20;0.20;;;23.40;45.80;;;;;;6143134;28;20038;-46
2022/06/28 04:38:15;;;;;;;0.10;0.10;;;23.40;45.90;;;;;;6141779;28;20557;-52
2022/06/28 04:41:27;;;;;;;0.50;0.22;;;23.30;45.80;;;;;;6120797;28;20462;-49
2022/06/28 04:44:33;;;;;;;0.30;0.20;;;23.20;45.80;;;;;;6134529;28;20043;-49
2022/06/28 04:47:36;;;;;;;0.47;0.47;;;23.40;45.90;;;;;;6145525;28;20038;-47
2022/06/28 04:50:38;;;;;;;0.30;0.13;;;23.40;45.90;;;;;;6148247;28;20105;-49
2022/06/28 04:53:42;;;;;;;0.32;0.13;;;23.30;45.90;;;;;;6145853;28;20039;-46
2022/06/28 04:56:43;;;;;;;0.57;0.20;;;23.30;45.90;;;;;;6102378;28;20330;-47
2022/06/28 04:59:46;;;;;;;0.47;0.25;;;23.20;45.90;;;;;;6142822;28;20074;-47
2022/06/28 05:02:58;;;;;;;0.45;0.20;;;23.30;45.90;;;;;;6140506;28;20187;-48
2022/06/28 05:06:11;;;;;;;0.57;0.20;;;23.30;45.90;;;;;;6138087;28;20410;-50
2022/06/28 05:09:15;;;;;;;0.30;0.20;;;23.20;45.90;;;;;;6135621;28;20807;-48
2022/06/28 05:12:38;;;;;;;0.30;0.10;;;23.30;45.90;;;;;;6126933;28;21021;-47
2022/06/28 05:15:46;;;;;;;0.38;0.20;;;23.20;45.90;;;;;;6140537;28;20039;-51
2022/06/28 05:18:49;;;;;;;0.10;0.10;;;23.30;46.00;;;;;;6131528;28;20928;-49
2022/06/28 05:21:56;;;;;;;0.20;0.10;;;23.30;46.00;;;;;;6130637;28;20721;-48
2022/06/28 05:24:58;;;;;;;0.20;0.20;;;23.30;46.00;;;;;;6133021;28;20281;-49
2022/06/28 05:28:00;;;;;;;0.20;0.15;;;23.20;46.00;;;;;;6104615;28;20301;-47
2022/06/28 05:31:02;;;;;;;0.75;0.40;;;23.30;46.10;;;;;;6118106;28;20073;-48
2022/06/28 05:34:04;;;;;;;0.38;0.20;;;23.20;46.10;;;;;;6121595;28;20093;-45
2022/06/28 05:37:07;;;;;;;0.50;0.20;;;23.20;46.10;;;;;;6125966;28;20835;-47
2022/06/28 05:40:10;;;;;;;0.40;0.20;;;23.30;46.10;;;;;;6125304;28;20054;-46
2022/06/28 05:43:11;;;;;;;0.25;0.17;;;23.20;46.40;;;;;;6116964;28;20390;-46
2022/06/28 05:46:13;;;;;;;0.43;0.30;;;23.30;46.10;;;;;;6120211;28;20413;-49
2022/06/28 05:49:15;;;;;;;0.40;0.30;;;23.30;46.10;;;;;;6114045;28;20252;-51
2022/06/28 05:52:17;;;;;;;0.25;0.10;;;23.30;46.10;;;;;;6119971;28;20241;-48
2022/06/28 05:55:19;;;;;;;0.43;0.20;;;23.30;46.10;;;;;;6133090;28;20055;-46
2022/06/28 05:58:20;;;;;;;0.28;0.20;;;23.30;46.10;;;;;;6127549;28;20975;-49
2022/06/28 06:01:23;;;;;;;0.20;0.20;;;23.30;46.10;;;;;;6129993;28;20153;-47
2022/06/28 06:04:26;;;;;;;2.20;0.60;;;23.30;46.20;;;;;;6124163;28;20046;-49
2022/06/28 06:07:27;;;;;;;1.25;0.55;;;23.30;46.20;;;;;;6113403;28;20046;-45
2022/06/28 06:10:29;;;;;;;2.38;0.82;;;23.50;46.40;;;;;;6125118;28;20053;-44
2022/06/28 06:13:30;;;;;;;2.25;0.90;;;23.40;46.60;;;;;;6125748;28;20049;-42
2022/06/28 06:16:33;;;;;;;2.10;0.75;;;23.40;46.70;;;;;;6110826;28;20074;-45
2022/06/28 06:19:34;;;;;;;3.13;0.57;;;23.40;46.80;;;;;;6114431;28;20039;-42
2022/06/28 06:22:36;;;;;;;1.70;0.60;;;23.50;47.00;;;;;;6105325;28;20834;-44
2022/06/28 06:25:48;;;;;;;1.45;0.60;;;23.90;47.30;;;;;;6096716;28;20219;-46
2022/06/28 06:28:50;;;;;;;4.07;1.20;;;23.60;47.20;;;;;;6092643;28;20038;-41
2022/06/28 06:31:54;;;;;;;2.78;0.90;;;23.60;47.10;;;;;;6094315;28;20096;-42
2022/06/28 06:35:12;;;;;;;4.22;0.93;;;23.60;47.20;;;;;;6074171;28;20061;-43
2022/06/28 06:38:14;;;;;;;2.40;0.88;;;23.60;47.10;;;;;;6081100;28;20176;-45
2022/06/28 06:41:18;;;;;;;1.80;1.00;;;23.70;47.20;;;;;;6066728;28;21436;-46
2022/06/28 06:44:26;;;;;;;4.43;1.10;;;23.60;47.10;;;;;;6066050;28;20050;-43
2022/06/28 06:47:28;;;;;;;4.20;1.10;;;23.40;47.00;;;;;;6062373;28;21042;-42
2022/06/28 06:50:30;;;;;;;5.35;1.13;;;23.70;47.20;;;;;;6040646;28;20050;-41
2022/06/28 06:53:32;;;;;;;2.38;0.98;;;23.70;47.30;;;;;;6019304;28;20378;-43
2022/06/28 06:56:33;;;;;;;2.05;0.70;;;23.70;47.30;;;;;;5956512;28;20070;-43
2022/06/28 06:59:35;;;;;;;1.02;0.60;;;23.60;47.30;;;;;;5993529;28;20217;-45
2022/06/28 07:02:41;;;;;;;1.02;0.50;;;23.60;47.40;;;;;;5987310;28;20093;-44
2022/06/28 07:05:43;;;;;;;1.92;0.50;;;23.60;47.50;;;;;;5944557;28;20042;-44
2022/06/28 07:08:45;;;;;;;2.40;0.90;;;23.60;47.60;;;;;;5937973;28;20092;-42
2022/06/28 07:11:47;;;;;;;3.47;1.02;;;23.60;47.60;;;;;;5925657;28;20108;-45
2022/06/28 07:14:49;;;;;;;3.85;0.90;;;23.60;47.60;;;;;;5913964;28;20081;-42
2022/06/28 07:17:53;;;;;;;2.25;0.82;;;23.70;47.70;;;;;;5930419;28;20062;-45
2022/06/28 07:20:55;;;;;;;1.35;0.60;;;23.70;47.70;;;;;;5914623;28;20049;-46
2022/06/28 07:23:57;;;;;;;1.00;0.50;;;23.70;47.80;;;;;;5918118;28;20045;-41
2022/06/28 07:26:59;;;;;;;3.22;0.55;;;23.80;48.00;;;;;;5927109;28;20102;-40
2022/06/28 07:30:01;;;;;;;1.20;0.60;;;23.70;47.90;;;;;;5879124;28;20157;-40
2022/06/28 07:33:04;;;;;;;1.27;0.47;;;23.70;48.00;;;;;;5886932;28;20076;-40
2022/06/28 07:36:07;;;;;;;0.77;0.40;;;23.70;48.10;;;;;;5862130;28;20046;-43
2022/06/28 07:39:09;;;;;;;1.67;0.30;;;23.60;48.00;;;;;;5876213;28;22198;-40
2022/06/28 07:42:22;;;;;;;2.15;0.65;;;23.40;48.00;;;;;;5868205;28;21260;-42
2022/06/28 07:45:41;;;;;;;0.95;0.52;;;23.60;48.20;;;;;;5879336;28;20058;-41
2022/06/28 07:48:50;;;;;;;1.25;0.40;;;23.50;48.30;;;;;;5875618;28;20054;-43
2022/06/28 07:55:11;;;;;;;0.95;0.50;;;23.50;48.50;;;;;;5883596;28;22391;-41
2022/06/28 07:58:31;;;;;;;1.15;0.45;;;23.50;48.40;;;;;;5883517;28;20064;-44
2022/06/28 08:01:33;;;;;;;1.27;0.45;;;23.60;48.40;;;;;;5889602;28;20065;-41
2022/06/28 08:04:40;;;;;;;0.50;0.20;;;23.40;48.20;;;;;;5879101;28;20949;-43
2022/06/28 08:07:43;;;;;;;0.90;0.45;;;23.60;48.20;;;;;;5855019;28;21961;-42
2022/06/28 08:10:45;;;;;;;0.90;0.30;;;23.60;48.30;;;;;;5838740;28;20583;-44
2022/06/28 08:13:48;;;;;;;1.48;0.60;;;23.70;48.20;;;;;;5857471;28;20051;-44
2022/06/28 08:16:52;;;;;;;1.33;0.40;;;23.70;48.10;;;;;;5883904;28;20054;-40
2022/06/28 08:19:54;;;;;;;0.88;0.32;;;23.60;48.00;;;;;;5902796;28;25105;-40
2022/06/28 08:22:56;;;;;;;0.80;0.30;;;23.70;48.00;;;;;;5859829;28;20140;-41
2022/06/28 08:25:58;;;;;;;0.30;0.10;;;23.70;47.90;;;;;;5866980;28;21705;-44
2022/06/28 08:28:59;;;;;;;0.45;0.28;;;23.70;47.90;;;;;;5851910;28;23787;-43
2022/06/28 08:32:02;;;;;;;0.73;0.30;;;23.70;47.80;;;;;;5848460;28;22032;-46
2022/06/28 08:35:06;;;;;;;0.52;0.30;;;23.70;47.70;;;;;;5830730;28;20359;-41
2022/06/28 08:38:08;;;;;;;0.28;0.13;;;23.80;47.70;;;;;;5867335;28;22149;-42
2022/06/28 08:41:10;;;;;;;0.30;0.20;;;23.80;47.70;;;;;;5875625;28;20050;-42
2022/06/28 08:44:13;;;;;;;1.23;0.15;;;23.80;47.60;;;;;;5895193;28;20127;-41
2022/06/28 08:47:15;;;;;;;0.20;0.20;;;23.90;47.50;;;;;;5868875;28;20066;-42
2022/06/28 08:50:46;;;;;;;0.60;0.25;;;23.80;47.40;;;;;;5889510;28;20180;-42
2022/06/28 08:53:48;;;;;;;0.20;0.20;;;23.70;47.30;;;;;;5812402;28;27892;-43
2022/06/28 08:56:50;;;;;;;0.70;0.20;;;23.90;47.40;;;;;;5830185;28;20169;-43
2022/06/28 08:59:52;;;;;;;0.50;0.20;;;23.90;47.30;;;;;;5827041;28;20046;-45
2022/06/28 09:02:54;;;;;;;0.20;0.10;;;23.90;47.30;;;;;;5806738;28;20042;-40
2022/06/28 09:05:59;;;;;;;0.75;0.22;;;23.90;47.40;;;;;;5826702;28;20780;-43
2022/06/28 09:09:00;;;;;;;0.65;0.30;;;24.00;47.30;;;;;;5847634;28;20056;-43
2022/06/28 09:12:03;;;;;;;0.40;0.20;;;24.00;47.20;;;;;;5846301;28;20046;-41
2022/06/28 09:15:06;;;;;;;0.30;0.20;;;23.50;46.90;;;;;;5830582;28;21363;-42
2022/06/28 09:18:13;;;;;;;0.52;0.20;;;24.00;47.10;;;;;;5860163;28;20127;-43
2022/06/28 09:21:17;;;;;;;0.60;0.30;;;24.20;47.10;;;;;;5875153;28;20042;-41
2022/06/28 09:24:24;;;;;;;0.30;0.10;;;23.80;46.80;;;;;;5865947;28;20057;-41
2022/06/28 09:27:29;;;;;;;0.20;0.20;;;23.90;46.70;;;;;;5867579;28;20050;-44
2022/06/28 09:30:32;;;;;;;0.75;0.13;;;24.10;46.70;;;;;;5865043;28;20087;-48
2022/06/28 09:33:34;;;;;;;0.32;0.10;;;24.10;46.70;;;;;;5840086;28;20046;-45
2022/06/28 09:36:38;;;;;;;0.13;0.10;;;24.10;46.50;;;;;;5870862;28;20034;-44
2022/06/28 09:39:47;;;;;;;0.28;0.20;;;24.10;46.30;;;;;;5848078;28;21678;-43
2022/06/28 09:43:06;;;;;;;0.50;0.20;;;24.20;46.20;;;;;;5912180;28;21214;-42
2022/06/28 09:46:33;;;;;;;1.90;0.20;;;24.10;46.00;;;;;;5889893;28;20051;-43
2022/06/28 09:50:00;;;;;;;0.10;0.10;;;24.20;46.00;;;;;;5893368;28;31615;-44
2022/06/28 09:53:05;;;;;;;0.50;0.20;;;24.30;46.10;;;;;;5908130;28;46101;-43
2022/06/28 09:56:12;;;;;;;0.63;0.20;;;24.30;46.00;;;;;;5918354;28;23357;-43
2022/06/28 09:59:14;;;;;;;0.32;0.20;;;24.30;46.00;;;;;;5920940;28;32833;-46
2022/06/28 10:02:17;;;;;;;0.52;0.28;;;24.30;45.90;;;;;;5896272;28;28760;-42
2022/06/28 10:05:20;;;;;;;1.40;0.20;;;24.40;45.90;;;;;;5881468;28;20054;-43
2022/06/28 10:08:23;;;;;;;1.00;0.20;;;24.30;45.90;;;;;;5908635;28;43928;-42
2022/06/28 10:11:25;;;;;;;1.40;0.20;;;24.30;45.90;;;;;;5885724;28;24553;-44
2022/06/28 10:21:42;;;;;;;0.70;0.20;;;24.50;45.70;;;;;;5897019;28;21644;-41
2022/06/28 10:24:53;;;;;;;0.20;0.10;;;24.30;45.50;;;;;;5899597;28;35963;-45
2022/06/28 10:27:56;;;;;;;0.20;0.10;;;24.40;45.50;;;;;;5900467;28;20491;-42
2022/06/28 10:31:30;;;;;;;0.85;0.10;;;24.40;45.50;;;;;;5942256;28;20042;-42
2022/06/28 10:34:52;;;;;;;0.35;0.15;;;24.40;45.30;;;;;;5971484;28;21045;-41
2022/06/28 10:38:16;;;;;;;0.88;0.20;;;24.50;45.40;;;;;;5982102;28;20085;-45
2022/06/28 10:41:18;;;;;;;0.38;0.17;;;24.40;45.00;;;;;;5994966;28;20160;-43
2022/06/28 10:44:22;;;;;;;0.38;0.20;;;24.50;44.90;;;;;;5995589;28;20049;-43
2022/06/28 10:47:24;;;;;;;0.25;0.15;;;24.30;44.60;;;;;;6002852;28;20057;-42
2022/06/28 10:50:26;;;;;;;0.30;0.15;;;24.40;44.50;;;;;;6013142;28;20053;-40
2022/06/28 10:53:32;;;;;;;0.52;0.30;;;24.50;44.40;;;;;;6028042;28;20179;-41
2022/06/28 10:56:41;;;;;;;0.82;0.20;;;24.40;44.20;;;;;;6010167;28;22292;-42
2022/06/28 10:59:47;;;;;;;0.55;0.20;;;24.40;44.10;;;;;;6013635;28;20066;-41
2022/06/28 11:02:59;;;;;;;0.63;0.30;;;24.50;44.00;;;;;;5981589;28;20042;-41
2022/06/28 11:06:06;;;;;;;0.45;0.28;;;24.50;44.00;;;;;;5992963;28;20159;-43
2022/06/28 11:09:12;;;;;;;0.52;0.20;;;24.40;43.90;;;;;;6035207;28;20942;-41
2022/06/28 11:12:15;;;;;;;0.30;0.10;;;24.50;43.90;;;;;;6006921;28;22188;-42
2022/06/28 11:15:35;;;;;;;0.28;0.10;;;24.50;43.60;;;;;;6018582;28;20050;-40
2022/06/28 11:18:36;;;;;;;0.20;0.20;;;24.50;43.40;;;;;;6025260;28;20078;-41
2022/06/28 11:21:39;;;;;;;0.60;0.22;;;24.40;43.40;;;;;;5971112;28;20300;-42
2022/06/28 11:24:44;;;;;;;0.38;0.20;;;24.50;43.40;;;;;;6010559;28;32182;-44
2022/06/28 11:27:48;;;;;;;0.57;0.30;;;24.50;43.30;;;;;;6016193;28;20039;-42
2022/06/28 11:30:50;;;;;;;0.40;0.13;;;24.40;43.20;;;;;;5985083;28;20307;-44
2022/06/28 11:33:52;;;;;;;0.40;0.20;;;24.40;43.20;;;;;;5984451;28;20045;-44
2022/06/28 11:36:55;;;;;;;0.52;0.35;;;24.40;43.10;;;;;;5977283;28;20361;-46
2022/06/28 11:39:58;;;;;;;0.40;0.10;;;24.30;43.00;;;;;;5991359;28;20062;-44
2022/06/28 11:43:02;;;;;;;0.30;0.20;;;24.50;43.00;;;;;;5986774;28;20572;-49
2022/06/28 11:46:04;;;;;;;2.90;0.35;;;24.40;42.80;;;;;;5920988;28;20545;-45
2022/06/28 11:49:06;;;;;;;0.30;0.10;;;24.40;42.80;;;;;;5988986;28;20389;-43
2022/06/28 11:52:12;;;;;;;0.30;0.20;;;24.50;42.70;;;;;;5948193;28;20305;-43
2022/06/28 11:55:14;;;;;;;0.20;0.10;;;24.50;42.60;;;;;;5962892;28;22455;-44
2022/06/28 11:58:19;;;;;;;0.17;0.17;;;24.50;42.50;;;;;;5954890;28;20081;-45
2022/06/28 12:01:22;;;;;;;0.32;0.10;;;24.50;42.40;;;;;;5855261;28;20764;-44
2022/06/28 12:04:26;;;;;;;0.30;0.10;;;24.50;42.40;;;;;;5857080;28;20090;-45
2022/06/28 12:07:33;;;;;;;1.23;0.20;;;24.40;42.20;;;;;;5832743;28;20052;-49
2022/06/28 12:10:34;;;;;;;0.38;0.20;;;24.50;42.20;;;;;;5895041;28;20105;-45
2022/06/28 12:13:37;;;;;;;1.23;0.10;;;24.50;42.50;;;;;;5900344;28;20042;-44
2022/06/28 12:16:41;;;;;;;0.30;0.10;;;24.50;42.10;;;;;;5920146;28;20422;-44
2022/06/28 12:19:43;;;;;;;0.38;0.13;;;24.50;42.00;;;;;;5883084;28;20049;-47
2022/06/28 12:22:55;;;;;;;1.35;0.20;;;24.50;42.00;;;;;;5899096;28;20034;-44
2022/06/28 12:25:59;;;;;;;1.35;0.10;;;24.50;42.00;;;;;;5906166;28;20057;-46
2022/06/28 12:29:03;;;;;;;0.20;0.10;;;24.50;41.90;;;;;;5911495;28;20167;-46
2022/06/28 12:32:06;;;;;;;0.22;0.10;;;24.50;41.90;;;;;;5921100;28;20047;-42
2022/06/28 12:35:28;;;;;;;1.13;0.20;;;24.50;41.80;;;;;;5885503;28;22266;-42
2022/06/28 12:38:30;;;;;;;0.40;0.10;;;24.50;41.70;;;;;;5890588;28;20081;-42
2022/06/28 12:41:31;;;;;;;0.30;0.10;;;24.50;41.60;;;;;;5882463;28;21540;-41
2022/06/28 12:44:34;;;;;;;0.40;0.22;;;24.50;42.10;;;;;;5883307;28;20108;-42
2022/06/28 12:47:37;;;;;;;0.50;0.15;;;24.50;41.50;;;;;;5874351;28;20046;-44
2022/06/28 12:50:39;;;;;;;0.30;0.20;;;24.50;41.30;;;;;;5859069;28;20172;-44
2022/06/28 12:53:41;;;;;;;0.20;0.10;;;24.60;41.30;;;;;;5867916;28;20635;-42
2022/06/28 12:57:08;;;;;;;0.45;0.20;;;24.50;41.10;;;;;;5900444;28;20046;-46
2022/06/28 13:00:12;;;;;;;0.35;0.30;;;24.50;41.00;;;;;;5876897;28;20203;-45
2022/06/28 13:03:14;;;;;;;0.95;0.17;;;24.60;40.90;;;;;;5803017;28;20058;-47
2022/06/28 13:06:16;;;;;;;0.30;0.20;;;24.50;40.70;;;;;;5820556;28;28961;-43
2022/06/28 13:09:17;;;;;;;0.55;0.20;;;24.50;40.50;;;;;;5845338;28;20049;-46
2022/06/28 13:12:19;;;;;;;0.20;0.10;;;24.40;40.30;;;;;;5815745;28;20097;-45
2022/06/28 13:15:26;;;;;;;0.25;0.10;;;24.60;40.80;;;;;;5855255;28;21597;-46
2022/06/28 13:18:28;;;;;;;0.30;0.10;;;24.50;40.20;;;;;;5878823;28;20046;-46
2022/06/28 13:21:30;;;;;;;0.38;0.20;;;24.60;40.20;;;;;;5865364;28;20043;-49
2022/06/28 13:24:33;;;;;;;0.40;0.20;;;24.50;40.20;;;;;;5843089;28;20053;-45
2022/06/28 13:27:35;;;;;;;0.30;0.10;;;24.60;40.10;;;;;;5880698;28;20058;-47
2022/06/28 13:30:38;;;;;;;0.13;0.13;;;24.40;39.90;;;;;;5878633;28;20046;-47
2022/06/28 13:33:39;;;;;;;0.52;0.20;;;24.60;39.60;;;;;;5843879;28;36478;-47
2022/06/28 13:36:41;;;;;;;0.25;0.15;;;24.60;39.70;;;;;;5874015;28;20193;-46
2022/06/28 13:39:43;;;;;;;0.13;0.10;;;24.50;39.50;;;;;;5883391;28;23809;-45
2022/06/28 13:42:44;;;;;;;0.10;0.10;;;24.60;39.50;;;;;;5880327;28;20057;-43
2022/06/28 13:45:47;;;;;;;0.32;0.10;;;24.50;39.40;;;;;;5884857;28;21350;-47
2022/06/28 13:48:48;;;;;;;0.28;0.10;;;24.50;39.40;;;;;;5887050;28;20050;-49
2022/06/28 13:51:50;;;;;;;0.35;0.10;;;24.50;39.40;;;;;;5881068;28;20043;-49
2022/06/28 13:54:52;;;;;;;1.05;0.10;;;24.60;39.50;;;;;;5877538;28;23148;-50
2022/06/28 13:57:54;;;;;;;0.10;0.10;;;24.60;39.50;;;;;;5875355;28;20106;-45
2022/06/28 14:00:57;;;;;;;0.65;0.20;;;24.70;39.70;;;;;;5867836;28;20061;-44
2022/06/28 14:03:59;;;;;;;1.05;0.10;;;24.60;39.50;;;;;;5792166;28;21398;-46
2022/06/28 14:07:01;;;;;;;1.65;0.10;;;24.70;39.60;;;;;;5814104;28;23517;-46
2022/06/28 14:10:03;;;;;;;0.20;0.10;;;24.50;39.50;;;;;;5863513;28;20141;-45
2022/06/28 14:13:05;;;;;;;0.10;0.10;;;24.80;39.70;;;;;;5837858;28;20189;-48
2022/06/28 14:16:08;;;;;;;0.25;0.10;;;24.50;40.20;;;;;;5829116;28;24883;-47
2022/06/28 14:19:10;;;;;;;0.30;0.20;;;24.50;39.60;;;;;;5866543;28;20444;-46
2022/06/28 14:22:11;;;;;;;0.20;0.10;;;24.60;39.80;;;;;;5864437;28;20113;-49
2022/06/28 14:25:13;;;;;;;0.17;0.00;;;24.60;39.80;;;;;;5848540;28;22229;-47
2022/06/28 14:28:16;;;;;;;0.70;0.08;;;24.60;40.00;;;;;;5857631;28;44923;-48
2022/06/28 14:31:28;;;;;;;0.35;0.10;;;24.60;39.80;;;;;;5911733;28;20054;-48
2022/06/28 14:34:48;;;;;;;0.20;0.10;;;24.60;40.00;;;;;;5888789;28;21305;-46
2022/06/28 14:37:50;;;;;;;0.30;0.10;;;24.60;40.00;;;;;;5844652;28;28142;-51
2022/06/28 14:40:52;;;;;;;0.10;0.10;;;24.60;40.00;;;;;;5874611;28;20172;-45
2022/06/28 14:43:54;;;;;;;0.10;0.10;;;24.60;40.10;;;;;;5867147;28;20107;-49
2022/06/28 14:46:57;;;;;;;0.43;0.20;;;24.70;40.10;;;;;;5885079;28;27755;-51
2022/06/28 14:49:59;;;;;;;0.98;0.10;;;24.50;40.00;;;;;;5903059;28;20042;-52
2022/06/28 14:53:00;;;;;;;0.10;0.10;;;24.60;40.10;;;;;;5888974;28;20050;-52
2022/06/28 14:56:02;;;;;;;0.20;0.10;;;24.60;40.00;;;;;;5874164;28;22423;-52
2022/06/28 14:59:04;;;;;;;0.20;0.20;;;24.40;40.00;;;;;;5884143;28;20046;-50
2022/06/28 15:02:07;;;;;;;0.50;0.20;;;24.50;40.00;;;;;;5869880;28;22610;-47
2022/06/28 15:05:09;;;;;;;0.47;0.30;;;24.50;40.20;;;;;;5876302;28;20175;-49
2022/06/28 15:08:11;;;;;;;0.28;0.10;;;24.60;40.20;;;;;;5900052;28;20604;-46
2022/06/28 15:11:13;;;;;;;0.28;0.10;;;24.60;40.20;;;;;;5880969;28;20043;-53
2022/06/28 15:14:15;;;;;;;0.15;0.10;;;24.80;40.30;;;;;;5887924;28;20054;-47
2022/06/28 15:17:17;;;;;;;1.40;0.15;;;24.50;40.30;;;;;;5889193;28;20282;-46
2022/06/28 15:20:19;;;;;;;0.40;0.20;;;24.60;40.40;;;;;;5911307;28;20052;-48
2022/06/28 15:33:04;;;;;;;0.43;0.10;;;24.60;41.60;;;;;;5898883;28;20046;-50
2022/06/28 15:36:06;;;;;;;0.32;0.20;;;24.60;41.30;;;;;;5852289;28;20085;-52
2022/06/28 15:39:08;;;;;;;0.38;0.15;;;24.50;41.40;;;;;;5905341;28;20474;-47
2022/06/28 15:42:09;;;;;;;0.60;0.30;;;24.50;41.50;;;;;;5894957;28;20177;-48
2022/06/28 15:45:11;;;;;;;0.47;0.20;;;24.60;41.70;;;;;;5929847;28;27334;-47
2022/06/28 15:48:14;;;;;;;0.35;0.25;;;24.60;42.00;;;;;;5933107;28;20128;-51
2022/06/28 15:51:16;;;;;;;0.95;0.38;;;24.60;42.10;;;;;;5922714;28;20172;-50
2022/06/28 15:54:18;;;;;;;0.77;0.50;;;24.50;42.00;;;;;;5908710;28;20133;-47
2022/06/28 15:57:19;;;;;;;0.65;0.40;;;24.60;42.10;;;;;;5945347;28;21013;-50
2022/06/28 16:00:22;;;;;;;1.77;0.38;;;24.60;42.30;;;;;;5927268;28;20088;-50
2022/06/28 16:03:24;;;;;;;0.95;0.50;;;24.60;42.30;;;;;;5898854;28;21650;-46
2022/06/28 16:06:26;;;;;;;0.93;0.20;;;24.60;42.40;;;;;;5947659;28;20106;-49
2022/06/28 16:09:30;;;;;;;0.28;0.25;;;24.60;42.40;;;;;;5970379;28;20053;-50
2022/06/28 16:16:08;;;;;;;;;;;24.60;42.50;;;;;;5989496;28;20070;-47
2022/06/28 16:19:10;;;;;;;0.28;0.20;;;24.50;43.00;;;;;;5999245;28;19930;-48
2022/06/28 16:22:32;;;;;;;0.30;0.20;;;24.70;42.50;;;;;;5996757;28;20042;-50
2022/06/28 16:25:35;;;;;;;0.38;0.20;;;24.50;42.40;;;;;;6024673;28;20051;-49
2022/06/28 16:28:46;;;;;;;0.40;0.22;;;24.60;42.40;;;;;;5999556;28;21285;-47
2022/06/28 16:31:48;;;;;;;0.20;0.10;;;24.50;42.40;;;;;;6021632;28;20280;-48